sensor_id;sensor_type;location;lat;lon;timestamp;P1;durP1;ratioP1;P2;durP2;ratioP2
6023;SDS011;3040;42.654;23.296;2022-12-17T00:01:46;26.03;;;18.80;;
6023;SDS011;3040;42.654;23.296;2022-12-17T00:04:31;23.63;;;17.67;;
6023;SDS011;3040;42.654;23.296;2022-12-17T00:07:15;25.93;;;19.67;;
6023;SDS011;3040;42.654;23.296;2022-12-17T00:09:59;22.17;;;18.07;;
6023;SDS011;3040;42.654;23.296;2022-12-17T00:12:45;32.67;;;22.27;;
6023;SDS011;3040;42.654;23.296;2022-12-17T00:15:29;28.37;;;19.77;;
6023;SDS011;3040;42.654;23.296;2022-12-17T00:18:13;28.53;;;19.67;;
6023;SDS011;3040;42.654;23.296;2022-12-17T00:20:59;32.33;;;21.57;;
6023;SDS011;3040;42.654;23.296;2022-12-17T00:23:44;27.10;;;19.97;;
6023;SDS011;3040;42.654;23.296;2022-12-17T00:26:29;26.93;;;18.37;;
6023;SDS011;3040;42.654;23.296;2022-12-17T00:29:14;28.03;;;20.53;;
6023;SDS011;3040;42.654;23.296;2022-12-17T00:31:58;31.97;;;21.07;;
6023;SDS011;3040;42.654;23.296;2022-12-17T00:34:43;28.00;;;19.97;;
6023;SDS011;3040;42.654;23.296;2022-12-17T00:37:28;30.87;;;21.23;;
6023;SDS011;3040;42.654;23.296;2022-12-17T00:40:13;31.47;;;21.57;;
6023;SDS011;3040;42.654;23.296;2022-12-17T00:42:58;37.40;;;21.97;;
6023;SDS011;3040;42.654;23.296;2022-12-17T00:45:43;28.93;;;21.00;;
6023;SDS011;3040;42.654;23.296;2022-12-17T00:48:27;30.20;;;20.10;;
6023;SDS011;3040;42.654;23.296;2022-12-17T00:51:11;26.57;;;20.97;;
6023;SDS011;3040;42.654;23.296;2022-12-17T00:53:56;31.17;;;20.40;;
6023;SDS011;3040;42.654;23.296;2022-12-17T00:56:40;32.17;;;21.73;;
6023;SDS011;3040;42.654;23.296;2022-12-17T00:59:25;30.37;;;20.97;;
6023;SDS011;3040;42.654;23.296;2022-12-17T01:02:09;29.50;;;20.43;;
6023;SDS011;3040;42.654;23.296;2022-12-17T01:04:53;30.63;;;20.63;;
6023;SDS011;3040;42.654;23.296;2022-12-17T01:07:37;26.73;;;20.77;;
6023;SDS011;3040;42.654;23.296;2022-12-17T01:10:23;24.60;;;19.37;;
6023;SDS011;3040;42.654;23.296;2022-12-17T01:13:07;28.00;;;19.93;;
6023;SDS011;3040;42.654;23.296;2022-12-17T01:15:54;27.17;;;19.83;;
6023;SDS011;3040;42.654;23.296;2022-12-17T01:18:44;26.90;;;19.93;;
6023;SDS011;3040;42.654;23.296;2022-12-17T01:21:27;26.93;;;19.90;;
6023;SDS011;3040;42.654;23.296;2022-12-17T01:24:26;29.87;;;20.57;;
6023;SDS011;3040;42.654;23.296;2022-12-17T01:27:11;26.83;;;20.17;;
6023;SDS011;3040;42.654;23.296;2022-12-17T01:29:56;32.70;;;20.87;;
6023;SDS011;3040;42.654;23.296;2022-12-17T01:32:40;30.10;;;20.77;;
6023;SDS011;3040;42.654;23.296;2022-12-17T01:35:24;26.63;;;20.53;;
6023;SDS011;3040;42.654;23.296;2022-12-17T01:38:09;24.93;;;19.13;;
6023;SDS011;3040;42.654;23.296;2022-12-17T01:40:54;22.20;;;18.00;;
6023;SDS011;3040;42.654;23.296;2022-12-17T01:43:39;28.67;;;18.87;;
6023;SDS011;3040;42.654;23.296;2022-12-17T01:46:24;23.50;;;17.60;;
6023;SDS011;3040;42.654;23.296;2022-12-17T01:49:10;24.73;;;17.77;;
6023;SDS011;3040;42.654;23.296;2022-12-17T01:51:55;22.10;;;17.17;;
6023;SDS011;3040;42.654;23.296;2022-12-17T01:54:40;25.03;;;18.50;;
6023;SDS011;3040;42.654;23.296;2022-12-17T01:57:25;24.50;;;17.57;;
6023;SDS011;3040;42.654;23.296;2022-12-17T02:00:13;21.47;;;17.03;;
6023;SDS011;3040;42.654;23.296;2022-12-17T02:02:58;21.73;;;15.53;;
6023;SDS011;3040;42.654;23.296;2022-12-17T02:05:44;25.37;;;16.77;;
6023;SDS011;3040;42.654;23.296;2022-12-17T02:08:39;21.83;;;15.57;;
6023;SDS011;3040;42.654;23.296;2022-12-17T02:11:31;20.67;;;15.93;;
6023;SDS011;3040;42.654;23.296;2022-12-17T02:14:27;18.73;;;14.57;;
6023;SDS011;3040;42.654;23.296;2022-12-17T02:17:18;18.27;;;15.50;;
6023;SDS011;3040;42.654;23.296;2022-12-17T02:20:13;15.87;;;14.10;;
6023;SDS011;3040;42.654;23.296;2022-12-17T02:23:07;15.27;;;13.80;;
6023;SDS011;3040;42.654;23.296;2022-12-17T02:26:03;23.00;;;17.37;;
6023;SDS011;3040;42.654;23.296;2022-12-17T02:28:53;15.77;;;14.23;;
6023;SDS011;3040;42.654;23.296;2022-12-17T02:31:40;16.10;;;14.50;;
6023;SDS011;3040;42.654;23.296;2022-12-17T02:34:27;15.33;;;13.73;;
6023;SDS011;3040;42.654;23.296;2022-12-17T02:37:11;16.67;;;12.47;;
6023;SDS011;3040;42.654;23.296;2022-12-17T02:39:55;14.13;;;12.77;;
6023;SDS011;3040;42.654;23.296;2022-12-17T02:42:40;15.57;;;13.97;;
6023;SDS011;3040;42.654;23.296;2022-12-17T02:45:28;21.03;;;14.10;;
6023;SDS011;3040;42.654;23.296;2022-12-17T02:48:12;14.30;;;12.87;;
6023;SDS011;3040;42.654;23.296;2022-12-17T02:50:57;13.10;;;11.80;;
6023;SDS011;3040;42.654;23.296;2022-12-17T02:53:42;14.87;;;13.13;;
6023;SDS011;3040;42.654;23.296;2022-12-17T02:56:27;13.13;;;12.03;;
6023;SDS011;3040;42.654;23.296;2022-12-17T02:59:12;15.93;;;14.20;;
6023;SDS011;3040;42.654;23.296;2022-12-17T03:01:57;17.20;;;15.60;;
6023;SDS011;3040;42.654;23.296;2022-12-17T03:04:50;12.90;;;11.90;;
6023;SDS011;3040;42.654;23.296;2022-12-17T03:07:34;13.37;;;12.17;;
6023;SDS011;3040;42.654;23.296;2022-12-17T03:10:18;15.17;;;12.97;;
6023;SDS011;3040;42.654;23.296;2022-12-17T03:13:02;14.17;;;12.83;;
6023;SDS011;3040;42.654;23.296;2022-12-17T03:15:55;16.13;;;12.93;;
6023;SDS011;3040;42.654;23.296;2022-12-17T03:18:52;19.00;;;13.70;;
6023;SDS011;3040;42.654;23.296;2022-12-17T03:21:35;15.53;;;13.63;;
6023;SDS011;3040;42.654;23.296;2022-12-17T03:24:19;16.37;;;14.87;;
6023;SDS011;3040;42.654;23.296;2022-12-17T03:27:04;17.90;;;16.07;;
6023;SDS011;3040;42.654;23.296;2022-12-17T03:29:48;16.07;;;14.37;;
6023;SDS011;3040;42.654;23.296;2022-12-17T03:32:33;17.70;;;14.13;;
6023;SDS011;3040;42.654;23.296;2022-12-17T03:35:18;15.20;;;13.57;;
6023;SDS011;3040;42.654;23.296;2022-12-17T03:38:05;17.07;;;14.13;;
6023;SDS011;3040;42.654;23.296;2022-12-17T03:40:50;17.07;;;14.30;;
6023;SDS011;3040;42.654;23.296;2022-12-17T03:43:34;19.10;;;15.13;;
6023;SDS011;3040;42.654;23.296;2022-12-17T03:46:19;16.97;;;14.40;;
6023;SDS011;3040;42.654;23.296;2022-12-17T03:49:03;16.33;;;13.67;;
6023;SDS011;3040;42.654;23.296;2022-12-17T03:51:49;14.30;;;12.80;;
6023;SDS011;3040;42.654;23.296;2022-12-17T03:54:33;13.63;;;12.20;;
6023;SDS011;3040;42.654;23.296;2022-12-17T03:57:29;16.90;;;13.70;;
6023;SDS011;3040;42.654;23.296;2022-12-17T04:00:14;15.23;;;12.80;;
6023;SDS011;3040;42.654;23.296;2022-12-17T04:02:59;14.33;;;12.23;;
6023;SDS011;3040;42.654;23.296;2022-12-17T04:05:43;12.93;;;11.73;;
6023;SDS011;3040;42.654;23.296;2022-12-17T04:08:29;14.07;;;11.27;;
6023;SDS011;3040;42.654;23.296;2022-12-17T04:11:13;13.27;;;11.70;;
6023;SDS011;3040;42.654;23.296;2022-12-17T04:13:58;11.27;;;10.47;;
6023;SDS011;3040;42.654;23.296;2022-12-17T04:16:42;11.07;;;9.97;;
6023;SDS011;3040;42.654;23.296;2022-12-17T04:19:26;10.03;;;9.37;;
6023;SDS011;3040;42.654;23.296;2022-12-17T04:22:10;10.60;;;9.60;;
6023;SDS011;3040;42.654;23.296;2022-12-17T04:24:56;10.23;;;9.33;;
6023;SDS011;3040;42.654;23.296;2022-12-17T04:27:48;10.40;;;9.37;;
6023;SDS011;3040;42.654;23.296;2022-12-17T04:30:32;10.03;;;9.23;;
6023;SDS011;3040;42.654;23.296;2022-12-17T04:33:17;8.83;;;8.23;;
6023;SDS011;3040;42.654;23.296;2022-12-17T04:36:00;9.63;;;9.00;;
6023;SDS011;3040;42.654;23.296;2022-12-17T04:38:45;10.33;;;9.33;;
6023;SDS011;3040;42.654;23.296;2022-12-17T04:41:30;10.37;;;8.13;;
6023;SDS011;3040;42.654;23.296;2022-12-17T04:44:14;9.17;;;8.40;;
6023;SDS011;3040;42.654;23.296;2022-12-17T04:46:59;10.13;;;8.47;;
6023;SDS011;3040;42.654;23.296;2022-12-17T04:49:43;8.83;;;8.13;;
6023;SDS011;3040;42.654;23.296;2022-12-17T04:52:28;9.50;;;8.83;;
6023;SDS011;3040;42.654;23.296;2022-12-17T04:55:13;9.13;;;8.53;;
6023;SDS011;3040;42.654;23.296;2022-12-17T04:58:02;8.30;;;7.70;;
6023;SDS011;3040;42.654;23.296;2022-12-17T05:00:47;8.27;;;7.63;;
6023;SDS011;3040;42.654;23.296;2022-12-17T05:03:34;8.20;;;7.50;;
6023;SDS011;3040;42.654;23.296;2022-12-17T05:06:18;7.43;;;7.03;;
6023;SDS011;3040;42.654;23.296;2022-12-17T05:09:03;8.73;;;8.03;;
6023;SDS011;3040;42.654;23.296;2022-12-17T05:11:48;7.83;;;7.20;;
6023;SDS011;3040;42.654;23.296;2022-12-17T05:14:33;7.20;;;6.80;;
6023;SDS011;3040;42.654;23.296;2022-12-17T05:17:14;7.90;;;7.20;;
6023;SDS011;3040;42.654;23.296;2022-12-17T05:19:58;6.87;;;6.33;;
6023;SDS011;3040;42.654;23.296;2022-12-17T05:22:54;7.43;;;6.87;;
6023;SDS011;3040;42.654;23.296;2022-12-17T05:25:38;6.93;;;6.43;;
6023;SDS011;3040;42.654;23.296;2022-12-17T05:28:22;7.13;;;6.53;;
6023;SDS011;3040;42.654;23.296;2022-12-17T05:31:08;7.20;;;6.70;;
6023;SDS011;3040;42.654;23.296;2022-12-17T05:33:52;6.97;;;6.47;;
6023;SDS011;3040;42.654;23.296;2022-12-17T05:36:37;7.90;;;7.40;;
6023;SDS011;3040;42.654;23.296;2022-12-17T05:39:21;7.90;;;7.27;;
6023;SDS011;3040;42.654;23.296;2022-12-17T05:42:05;7.90;;;7.27;;
6023;SDS011;3040;42.654;23.296;2022-12-17T05:44:50;9.07;;;8.17;;
6023;SDS011;3040;42.654;23.296;2022-12-17T05:47:36;7.63;;;6.93;;
6023;SDS011;3040;42.654;23.296;2022-12-17T05:50:20;7.17;;;6.67;;
6023;SDS011;3040;42.654;23.296;2022-12-17T05:53:04;8.10;;;7.60;;
6023;SDS011;3040;42.654;23.296;2022-12-17T05:55:49;7.80;;;7.20;;
6023;SDS011;3040;42.654;23.296;2022-12-17T05:58:34;8.80;;;7.77;;
6023;SDS011;3040;42.654;23.296;2022-12-17T06:01:18;7.47;;;6.87;;
6023;SDS011;3040;42.654;23.296;2022-12-17T06:04:04;10.03;;;9.03;;
6023;SDS011;3040;42.654;23.296;2022-12-17T06:06:48;11.70;;;7.83;;
6023;SDS011;3040;42.654;23.296;2022-12-17T06:09:33;13.00;;;11.77;;
6023;SDS011;3040;42.654;23.296;2022-12-17T06:12:16;8.83;;;8.00;;
6023;SDS011;3040;42.654;23.296;2022-12-17T06:15:01;8.30;;;7.53;;
6023;SDS011;3040;42.654;23.296;2022-12-17T06:17:51;9.73;;;8.37;;
6023;SDS011;3040;42.654;23.296;2022-12-17T06:20:37;9.57;;;8.77;;
6023;SDS011;3040;42.654;23.296;2022-12-17T06:23:21;9.10;;;8.27;;
6023;SDS011;3040;42.654;23.296;2022-12-17T06:26:05;8.50;;;7.83;;
6023;SDS011;3040;42.654;23.296;2022-12-17T06:28:50;9.83;;;8.37;;
6023;SDS011;3040;42.654;23.296;2022-12-17T06:31:34;8.30;;;7.73;;
6023;SDS011;3040;42.654;23.296;2022-12-17T06:34:18;9.00;;;8.27;;
6023;SDS011;3040;42.654;23.296;2022-12-17T06:37:04;8.67;;;8.00;;
6023;SDS011;3040;42.654;23.296;2022-12-17T06:39:48;8.47;;;7.87;;
6023;SDS011;3040;42.654;23.296;2022-12-17T06:42:32;9.50;;;8.57;;
6023;SDS011;3040;42.654;23.296;2022-12-17T06:45:16;7.73;;;7.13;;
6023;SDS011;3040;42.654;23.296;2022-12-17T06:48:01;8.30;;;7.70;;
6023;SDS011;3040;42.654;23.296;2022-12-17T06:50:45;8.30;;;7.63;;
6023;SDS011;3040;42.654;23.296;2022-12-17T06:53:31;9.40;;;7.80;;
6023;SDS011;3040;42.654;23.296;2022-12-17T06:56:15;7.97;;;7.17;;
6023;SDS011;3040;42.654;23.296;2022-12-17T06:59:00;8.73;;;8.03;;
6023;SDS011;3040;42.654;23.296;2022-12-17T07:01:44;8.87;;;8.07;;
6023;SDS011;3040;42.654;23.296;2022-12-17T07:04:28;10.37;;;9.37;;
6023;SDS011;3040;42.654;23.296;2022-12-17T07:07:13;8.90;;;8.30;;
6023;SDS011;3040;42.654;23.296;2022-12-17T07:09:59;35.87;;;12.33;;
6023;SDS011;3040;42.654;23.296;2022-12-17T07:12:43;11.20;;;10.27;;
6023;SDS011;3040;42.654;23.296;2022-12-17T07:15:27;11.83;;;10.57;;
6023;SDS011;3040;42.654;23.296;2022-12-17T07:18:11;11.70;;;10.43;;
6023;SDS011;3040;42.654;23.296;2022-12-17T07:20:56;11.17;;;10.27;;
6023;SDS011;3040;42.654;23.296;2022-12-17T07:23:40;13.00;;;11.10;;
6023;SDS011;3040;42.654;23.296;2022-12-17T07:26:25;13.27;;;11.13;;
6023;SDS011;3040;42.654;23.296;2022-12-17T07:29:10;13.13;;;11.90;;
6023;SDS011;3040;42.654;23.296;2022-12-17T07:32:06;15.47;;;12.90;;
6023;SDS011;3040;42.654;23.296;2022-12-17T07:34:50;8.47;;;7.80;;
6023;SDS011;3040;42.654;23.296;2022-12-17T07:37:34;5.43;;;5.03;;
6023;SDS011;3040;42.654;23.296;2022-12-17T07:40:18;3.70;;;3.00;;
6023;SDS011;3040;42.654;23.296;2022-12-17T07:43:09;2.70;;;2.33;;
6023;SDS011;3040;42.654;23.296;2022-12-17T07:45:54;2.13;;;2.03;;
6023;SDS011;3040;42.654;23.296;2022-12-17T07:48:38;2.27;;;1.27;;
6023;SDS011;3040;42.654;23.296;2022-12-17T07:51:23;1.70;;;1.60;;
6023;SDS011;3040;42.654;23.296;2022-12-17T07:54:07;1.97;;;1.87;;
6023;SDS011;3040;42.654;23.296;2022-12-17T07:56:52;1.50;;;1.50;;
6023;SDS011;3040;42.654;23.296;2022-12-17T07:59:37;3.33;;;1.80;;
6023;SDS011;3040;42.654;23.296;2022-12-17T08:02:21;1.30;;;1.20;;
6023;SDS011;3040;42.654;23.296;2022-12-17T08:05:05;3.27;;;1.53;;
6023;SDS011;3040;42.654;23.296;2022-12-17T08:07:50;1.20;;;1.10;;
6023;SDS011;3040;42.654;23.296;2022-12-17T08:10:34;1.40;;;1.30;;
6023;SDS011;3040;42.654;23.296;2022-12-17T08:13:19;1.07;;;1.07;;
6023;SDS011;3040;42.654;23.296;2022-12-17T08:16:05;1.50;;;1.33;;
6023;SDS011;3040;42.654;23.296;2022-12-17T08:18:50;1.00;;;0.90;;
6023;SDS011;3040;42.654;23.296;2022-12-17T08:21:34;1.47;;;0.90;;
6023;SDS011;3040;42.654;23.296;2022-12-17T08:24:18;1.47;;;0.90;;
6023;SDS011;3040;42.654;23.296;2022-12-17T08:27:03;0.90;;;0.90;;
6023;SDS011;3040;42.654;23.296;2022-12-17T08:29:47;2.03;;;1.20;;
6023;SDS011;3040;42.654;23.296;2022-12-17T08:32:33;1.17;;;1.17;;
6023;SDS011;3040;42.654;23.296;2022-12-17T08:35:17;1.23;;;1.13;;
6023;SDS011;3040;42.654;23.296;2022-12-17T08:38:01;1.87;;;1.20;;
6023;SDS011;3040;42.654;23.296;2022-12-17T08:40:46;1.30;;;1.20;;
6023;SDS011;3040;42.654;23.296;2022-12-17T08:43:30;1.40;;;1.33;;
6023;SDS011;3040;42.654;23.296;2022-12-17T08:46:15;1.43;;;1.33;;
6023;SDS011;3040;42.654;23.296;2022-12-17T08:49:01;1.47;;;1.23;;
6023;SDS011;3040;42.654;23.296;2022-12-17T08:51:45;1.10;;;1.10;;
6023;SDS011;3040;42.654;23.296;2022-12-17T08:54:30;2.63;;;1.53;;
6023;SDS011;3040;42.654;23.296;2022-12-17T08:57:23;8.97;;;5.73;;
6023;SDS011;3040;42.654;23.296;2022-12-17T09:00:08;5.70;;;5.30;;
6023;SDS011;3040;42.654;23.296;2022-12-17T09:02:55;6.03;;;5.53;;
6023;SDS011;3040;42.654;23.296;2022-12-17T09:05:41;8.17;;;6.80;;
6023;SDS011;3040;42.654;23.296;2022-12-17T09:08:25;11.20;;;7.67;;
6023;SDS011;3040;42.654;23.296;2022-12-17T09:11:09;8.27;;;7.53;;
6023;SDS011;3040;42.654;23.296;2022-12-17T09:13:54;7.27;;;6.17;;
6023;SDS011;3040;42.654;23.296;2022-12-17T09:16:38;13.23;;;7.80;;
6023;SDS011;3040;42.654;23.296;2022-12-17T09:19:22;7.73;;;6.90;;
6023;SDS011;3040;42.654;23.296;2022-12-17T09:22:09;7.37;;;6.53;;
6023;SDS011;3040;42.654;23.296;2022-12-17T09:24:53;8.37;;;7.67;;
6023;SDS011;3040;42.654;23.296;2022-12-17T09:27:37;5.10;;;4.73;;
6023;SDS011;3040;42.654;23.296;2022-12-17T09:30:21;7.87;;;4.67;;
6023;SDS011;3040;42.654;23.296;2022-12-17T09:33:05;5.13;;;4.40;;
6023;SDS011;3040;42.654;23.296;2022-12-17T09:35:49;6.30;;;5.80;;
6023;SDS011;3040;42.654;23.296;2022-12-17T09:38:35;5.50;;;5.13;;
6023;SDS011;3040;42.654;23.296;2022-12-17T09:41:21;5.63;;;5.23;;
6023;SDS011;3040;42.654;23.296;2022-12-17T09:44:13;4.73;;;4.50;;
6023;SDS011;3040;42.654;23.296;2022-12-17T09:47:05;3.37;;;3.17;;
6023;SDS011;3040;42.654;23.296;2022-12-17T09:50:02;2.50;;;2.40;;
6023;SDS011;3040;42.654;23.296;2022-12-17T09:52:49;2.07;;;1.97;;
6023;SDS011;3040;42.654;23.296;2022-12-17T09:55:37;1.80;;;1.70;;
6023;SDS011;3040;42.654;23.296;2022-12-17T09:58:27;2.17;;;1.80;;
6023;SDS011;3040;42.654;23.296;2022-12-17T10:01:14;3.83;;;2.27;;
6023;SDS011;3040;42.654;23.296;2022-12-17T10:04:01;10.23;;;5.53;;
6023;SDS011;3040;42.654;23.296;2022-12-17T10:06:46;2.50;;;2.10;;
6023;SDS011;3040;42.654;23.296;2022-12-17T10:09:30;1.47;;;1.40;;
6023;SDS011;3040;42.654;23.296;2022-12-17T10:12:19;2.50;;;1.67;;
6023;SDS011;3040;42.654;23.296;2022-12-17T10:15:05;4.40;;;1.50;;
6023;SDS011;3040;42.654;23.296;2022-12-17T10:17:51;1.23;;;1.20;;
6023;SDS011;3040;42.654;23.296;2022-12-17T10:20:35;1.27;;;1.00;;
6023;SDS011;3040;42.654;23.296;2022-12-17T10:23:23;0.70;;;0.70;;
6023;SDS011;3040;42.654;23.296;2022-12-17T10:26:12;1.73;;;1.30;;
6023;SDS011;3040;42.654;23.296;2022-12-17T10:29:02;0.70;;;0.70;;
6023;SDS011;3040;42.654;23.296;2022-12-17T10:31:47;1.40;;;0.70;;
6023;SDS011;3040;42.654;23.296;2022-12-17T10:34:34;1.13;;;1.03;;
6023;SDS011;3040;42.654;23.296;2022-12-17T10:37:20;1.90;;;0.60;;
6023;SDS011;3040;42.654;23.296;2022-12-17T10:40:13;0.60;;;0.60;;
6023;SDS011;3040;42.654;23.296;2022-12-17T10:43:20;1.07;;;0.50;;
6023;SDS011;3040;42.654;23.296;2022-12-17T10:46:09;0.60;;;0.60;;
6023;SDS011;3040;42.654;23.296;2022-12-17T10:49:04;2.80;;;0.80;;
6023;SDS011;3040;42.654;23.296;2022-12-17T10:51:57;1.27;;;0.70;;
6023;SDS011;3040;42.654;23.296;2022-12-17T10:54:42;1.40;;;0.60;;
6023;SDS011;3040;42.654;23.296;2022-12-17T10:57:38;0.40;;;0.40;;
6023;SDS011;3040;42.654;23.296;2022-12-17T11:00:26;0.50;;;0.50;;
6023;SDS011;3040;42.654;23.296;2022-12-17T11:06:33;0.30;;;0.23;;
6023;SDS011;3040;42.654;23.296;2022-12-17T11:09:22;1.07;;;0.60;;
6023;SDS011;3040;42.654;23.296;2022-12-17T11:12:12;0.60;;;0.60;;
6023;SDS011;3040;42.654;23.296;2022-12-17T11:15:02;0.77;;;0.40;;
6023;SDS011;3040;42.654;23.296;2022-12-17T11:17:57;0.40;;;0.40;;
6023;SDS011;3040;42.654;23.296;2022-12-17T11:20:46;0.60;;;0.60;;
6023;SDS011;3040;42.654;23.296;2022-12-17T11:23:38;0.40;;;0.40;;
6023;SDS011;3040;42.654;23.296;2022-12-17T11:26:29;3.40;;;0.77;;
6023;SDS011;3040;42.654;23.296;2022-12-17T11:29:17;0.77;;;0.70;;
6023;SDS011;3040;42.654;23.296;2022-12-17T11:32:07;0.40;;;0.40;;
6023;SDS011;3040;42.654;23.296;2022-12-17T11:35:07;1.00;;;1.00;;
6023;SDS011;3040;42.654;23.296;2022-12-17T11:38:03;0.73;;;0.73;;
6023;SDS011;3040;42.654;23.296;2022-12-17T11:41:01;1.20;;;0.77;;
6023;SDS011;3040;42.654;23.296;2022-12-17T11:43:55;0.50;;;0.50;;
6023;SDS011;3040;42.654;23.296;2022-12-17T11:46:49;0.30;;;0.30;;
6023;SDS011;3040;42.654;23.296;2022-12-17T11:49:42;1.93;;;0.33;;
6023;SDS011;3040;42.654;23.296;2022-12-17T11:52:35;1.00;;;1.00;;
6023;SDS011;3040;42.654;23.296;2022-12-17T11:55:32;0.40;;;0.40;;
6023;SDS011;3040;42.654;23.296;2022-12-17T11:58:24;1.00;;;1.00;;
6023;SDS011;3040;42.654;23.296;2022-12-17T12:01:18;2.13;;;2.03;;
6023;SDS011;3040;42.654;23.296;2022-12-17T12:04:13;5.73;;;5.43;;
6023;SDS011;3040;42.654;23.296;2022-12-17T12:07:11;3.77;;;3.57;;
6023;SDS011;3040;42.654;23.296;2022-12-17T12:10:04;3.40;;;3.20;;
6023;SDS011;3040;42.654;23.296;2022-12-17T12:12:58;3.37;;;3.17;;
6023;SDS011;3040;42.654;23.296;2022-12-17T12:15:58;5.87;;;5.20;;
6023;SDS011;3040;42.654;23.296;2022-12-17T12:18:50;5.03;;;4.70;;
6023;SDS011;3040;42.654;23.296;2022-12-17T12:21:44;10.73;;;8.87;;
6023;SDS011;3040;42.654;23.296;2022-12-17T12:24:42;4.43;;;4.13;;
6023;SDS011;3040;42.654;23.296;2022-12-17T12:27:43;5.10;;;4.70;;
6023;SDS011;3040;42.654;23.296;2022-12-17T12:30:36;5.03;;;4.63;;
6023;SDS011;3040;42.654;23.296;2022-12-17T12:33:29;4.60;;;4.27;;
6023;SDS011;3040;42.654;23.296;2022-12-17T12:36:28;5.13;;;4.73;;
6023;SDS011;3040;42.654;23.296;2022-12-17T12:39:17;5.07;;;4.67;;
6023;SDS011;3040;42.654;23.296;2022-12-17T12:42:12;5.43;;;5.00;;
6023;SDS011;3040;42.654;23.296;2022-12-17T12:45:05;5.00;;;4.80;;
6023;SDS011;3040;42.654;23.296;2022-12-17T12:48:13;6.43;;;6.03;;
6023;SDS011;3040;42.654;23.296;2022-12-17T12:51:08;7.37;;;6.87;;
6023;SDS011;3040;42.654;23.296;2022-12-17T12:53:56;8.37;;;6.07;;
6023;SDS011;3040;42.654;23.296;2022-12-17T12:56:40;5.87;;;5.47;;
6023;SDS011;3040;42.654;23.296;2022-12-17T12:59:25;5.20;;;4.90;;
6023;SDS011;3040;42.654;23.296;2022-12-17T13:02:21;8.70;;;5.50;;
6023;SDS011;3040;42.654;23.296;2022-12-17T13:05:24;4.97;;;4.67;;
6023;SDS011;3040;42.654;23.296;2022-12-17T13:08:02;4.50;;;4.10;;
6023;SDS011;3040;42.654;23.296;2022-12-17T13:10:41;5.47;;;5.07;;
6023;SDS011;3040;42.654;23.296;2022-12-17T13:13:09;4.97;;;4.57;;
6023;SDS011;3040;42.654;23.296;2022-12-17T13:15:42;5.33;;;5.00;;
6023;SDS011;3040;42.654;23.296;2022-12-17T13:18:14;8.33;;;6.60;;
6023;SDS011;3040;42.654;23.296;2022-12-17T13:20:56;6.10;;;5.23;;
6023;SDS011;3040;42.654;23.296;2022-12-17T13:23:27;7.17;;;6.47;;
6023;SDS011;3040;42.654;23.296;2022-12-17T13:26:12;7.57;;;7.07;;
6023;SDS011;3040;42.654;23.296;2022-12-17T13:28:49;6.10;;;5.70;;
6023;SDS011;3040;42.654;23.296;2022-12-17T13:31:25;6.77;;;6.20;;
6023;SDS011;3040;42.654;23.296;2022-12-17T13:33:56;7.60;;;7.00;;
6023;SDS011;3040;42.654;23.296;2022-12-17T13:36:31;8.63;;;8.03;;
6023;SDS011;3040;42.654;23.296;2022-12-17T13:39:05;12.43;;;11.43;;
6023;SDS011;3040;42.654;23.296;2022-12-17T13:41:41;13.47;;;12.27;;
6023;SDS011;3040;42.654;23.296;2022-12-17T13:44:16;14.50;;;12.40;;
6023;SDS011;3040;42.654;23.296;2022-12-17T13:46:46;17.20;;;15.90;;
6023;SDS011;3040;42.654;23.296;2022-12-17T13:49:15;11.13;;;10.23;;
6023;SDS011;3040;42.654;23.296;2022-12-17T13:51:45;11.20;;;10.70;;
6023;SDS011;3040;42.654;23.296;2022-12-17T13:54:13;10.73;;;9.87;;
6023;SDS011;3040;42.654;23.296;2022-12-17T13:56:42;10.33;;;9.70;;
6023;SDS011;3040;42.654;23.296;2022-12-17T13:59:14;8.17;;;7.53;;
6023;SDS011;3040;42.654;23.296;2022-12-17T14:01:44;9.20;;;8.60;;
6023;SDS011;3040;42.654;23.296;2022-12-17T14:04:18;10.23;;;9.37;;
6023;SDS011;3040;42.654;23.296;2022-12-17T14:06:48;11.80;;;10.87;;
6023;SDS011;3040;42.654;23.296;2022-12-17T14:09:16;12.27;;;11.27;;
6023;SDS011;3040;42.654;23.296;2022-12-17T14:11:45;26.77;;;18.03;;
6023;SDS011;3040;42.654;23.296;2022-12-17T14:14:30;99.57;;;57.10;;
6023;SDS011;3040;42.654;23.296;2022-12-17T14:16:59;42.17;;;29.73;;
6023;SDS011;3040;42.654;23.296;2022-12-17T14:19:26;41.23;;;26.83;;
6023;SDS011;3040;42.654;23.296;2022-12-17T14:21:57;28.23;;;22.63;;
6023;SDS011;3040;42.654;23.296;2022-12-17T14:24:25;20.10;;;17.03;;
6023;SDS011;3040;42.654;23.296;2022-12-17T14:26:55;11.20;;;9.63;;
6023;SDS011;3040;42.654;23.296;2022-12-17T14:29:24;15.00;;;10.47;;
6023;SDS011;3040;42.654;23.296;2022-12-17T14:31:54;10.97;;;9.37;;
6023;SDS011;3040;42.654;23.296;2022-12-17T14:34:23;16.90;;;13.90;;
6023;SDS011;3040;42.654;23.296;2022-12-17T14:36:54;12.40;;;11.40;;
6023;SDS011;3040;42.654;23.296;2022-12-17T14:39:25;14.50;;;10.23;;
6023;SDS011;3040;42.654;23.296;2022-12-17T14:41:54;9.40;;;8.60;;
6023;SDS011;3040;42.654;23.296;2022-12-17T14:44:41;9.47;;;8.77;;
6023;SDS011;3040;42.654;23.296;2022-12-17T14:47:17;7.60;;;7.10;;
6023;SDS011;3040;42.654;23.296;2022-12-17T14:49:57;14.43;;;11.80;;
6023;SDS011;3040;42.654;23.296;2022-12-17T14:52:29;18.67;;;16.30;;
6023;SDS011;3040;42.654;23.296;2022-12-17T14:57:49;24.50;;;22.23;;
6023;SDS011;3040;42.654;23.296;2022-12-17T15:00:17;23.23;;;21.10;;
6023;SDS011;3040;42.654;23.296;2022-12-17T15:02:45;16.67;;;15.10;;
6023;SDS011;3040;42.654;23.296;2022-12-17T15:05:17;15.83;;;14.43;;
6023;SDS011;3040;42.654;23.296;2022-12-17T15:07:44;25.17;;;22.67;;
6023;SDS011;3040;42.654;23.296;2022-12-17T15:10:12;16.53;;;14.90;;
6023;SDS011;3040;42.654;23.296;2022-12-17T15:12:44;20.83;;;9.77;;
6023;SDS011;3040;42.654;23.296;2022-12-17T15:15:13;13.90;;;12.30;;
6023;SDS011;3040;42.654;23.296;2022-12-17T15:17:40;9.97;;;8.93;;
6023;SDS011;3040;42.654;23.296;2022-12-17T15:20:08;17.70;;;10.63;;
6023;SDS011;3040;42.654;23.296;2022-12-17T15:22:42;9.57;;;8.53;;
6023;SDS011;3040;42.654;23.296;2022-12-17T15:25:09;6.27;;;5.97;;
6023;SDS011;3040;42.654;23.296;2022-12-17T15:27:38;10.87;;;9.87;;
6023;SDS011;3040;42.654;23.296;2022-12-17T15:30:08;49.97;;;38.67;;
6023;SDS011;3040;42.654;23.296;2022-12-17T15:32:39;32.00;;;26.60;;
6023;SDS011;3040;42.654;23.296;2022-12-17T15:35:06;35.83;;;30.63;;
6023;SDS011;3040;42.654;23.296;2022-12-17T15:37:34;54.93;;;45.23;;
6023;SDS011;3040;42.654;23.296;2022-12-17T15:40:01;46.17;;;36.90;;
6023;SDS011;3040;42.654;23.296;2022-12-17T15:42:28;22.87;;;20.67;;
6023;SDS011;3040;42.654;23.296;2022-12-17T15:45:14;15.20;;;13.73;;
6023;SDS011;3040;42.654;23.296;2022-12-17T15:47:41;19.27;;;17.17;;
6023;SDS011;3040;42.654;23.296;2022-12-17T15:50:08;19.67;;;17.53;;
6023;SDS011;3040;42.654;23.296;2022-12-17T15:52:35;22.30;;;19.77;;
6023;SDS011;3040;42.654;23.296;2022-12-17T15:55:02;19.57;;;15.23;;
6023;SDS011;3040;42.654;23.296;2022-12-17T15:57:29;18.77;;;13.77;;
6023;SDS011;3040;42.654;23.296;2022-12-17T15:59:56;22.07;;;16.00;;
6023;SDS011;3040;42.654;23.296;2022-12-17T16:02:24;22.33;;;16.63;;
6023;SDS011;3040;42.654;23.296;2022-12-17T16:04:51;23.40;;;18.10;;
6023;SDS011;3040;42.654;23.296;2022-12-17T16:07:18;21.93;;;16.63;;
6023;SDS011;3040;42.654;23.296;2022-12-17T16:09:45;36.93;;;24.60;;
6023;SDS011;3040;42.654;23.296;2022-12-17T16:12:12;31.80;;;21.90;;
6023;SDS011;3040;42.654;23.296;2022-12-17T16:14:40;30.00;;;23.53;;
6023;SDS011;3040;42.654;23.296;2022-12-17T16:17:07;18.20;;;16.10;;
6023;SDS011;3040;42.654;23.296;2022-12-17T16:19:35;10.87;;;10.10;;
6023;SDS011;3040;42.654;23.296;2022-12-17T16:22:02;12.63;;;11.53;;
6023;SDS011;3040;42.654;23.296;2022-12-17T16:24:29;11.93;;;10.93;;
6023;SDS011;3040;42.654;23.296;2022-12-17T16:26:56;14.00;;;12.57;;
6023;SDS011;3040;42.654;23.296;2022-12-17T16:29:23;31.70;;;19.17;;
6023;SDS011;3040;42.654;23.296;2022-12-17T16:31:50;21.93;;;16.30;;